Карточка аэропорта UACC

Внимание!
Информация на этой странице в стадии наполнения.
Если вы не увидели какой-то информации, или заметили неточность - пожалуйста сообщите нам!
Спасибо!
Команда RU-STAFF
Название аэропортаНур-Султан
Название аэропорта (англ.)Nur-Sultan
Превышение1165 ft. (355.1 m.)
Координаты51°1.3319999999999', 71°28.014'
Высота перехода10000
Эшелон переходаby ATC
Коды ответчика0601-0627, 7201-7217
Зона ОрВДНур-Султан РПИ (UACN)
Данные METARUACC 272000Z 03005MPS 9999 -RASN BKN007 OVC023 02/01 Q1013 NOSIG RMK QFE728/0971
Проноз погоды (TAF)UACC 271702Z 2718/2818 34004MPS 9999 SCT020CB BKN040 TX06/2809Z TNM00/2801Z TEMPO 2718/2721 01004MPS -SHRA BKN007 BKN015CB TEMPO 2721/2804 2000 -SHRASN BR BKN004 BKN015CB BECMG 2804/2806 SCT011 BKN040 TEMPO 2804/2812 35005MPS -SHRA BKN008 BKN020CB BECMG 2812/2814 36003MPS
NOTAMshow/hide NOTAM
AWOS   TABLE

Информация о ВПП

ВПП Длина ВПП (м.) Покрытие Курс ВПП Частота ILS
043500Асфальтобетон35109.5
223500Асфальтобетон215111.7

Диспетчерские позиции

Позывной Наименование органа УВД Частота
UACC_APPНур-Султан Подход124.6
UACC_R_APPНур-Султан Круг120.7
UACC_TWRНур-Султан Вышка118.7
UACC_GNDНур-Султан Руление119.6



Спутниковое изображение